sensor_id;sensor_type;location;lat;lon;timestamp;temperature;humidity
10447;DHT22;5271;44.422;26.092;2023-04-25T00:01:40;16.20;73.50
10447;DHT22;5271;44.422;26.092;2023-04-25T00:04:07;16.20;73.40
10447;DHT22;5271;44.422;26.092;2023-04-25T00:06:35;16.30;73.40
10447;DHT22;5271;44.422;26.092;2023-04-25T00:09:04;16.30;73.40
10447;DHT22;5271;44.422;26.092;2023-04-25T00:11:33;16.30;73.40
10447;DHT22;5271;44.422;26.092;2023-04-25T00:13:59;16.20;73.30
10447;DHT22;5271;44.422;26.092;2023-04-25T00:16:27;16.20;73.30
10447;DHT22;5271;44.422;26.092;2023-04-25T00:18:56;16.20;73.30
10447;DHT22;5271;44.422;26.092;2023-04-25T00:21:24;16.20;73.60
10447;DHT22;5271;44.422;26.092;2023-04-25T00:23:52;16.20;73.60
10447;DHT22;5271;44.422;26.092;2023-04-25T00:26:21;16.20;73.60
10447;DHT22;5271;44.422;26.092;2023-04-25T00:28:48;16.10;73.70
10447;DHT22;5271;44.422;26.092;2023-04-25T00:31:14;16.10;74.10
10447;DHT22;5271;44.422;26.092;2023-04-25T00:33:41;16.10;74.20
10447;DHT22;5271;44.422;26.092;2023-04-25T00:36:08;16.00;74.20
10447;DHT22;5271;44.422;26.092;2023-04-25T00:38:35;16.00;74.40
10447;DHT22;5271;44.422;26.092;2023-04-25T00:41:04;16.00;74.40
10447;DHT22;5271;44.422;26.092;2023-04-25T00:43:33;16.00;74.50
10447;DHT22;5271;44.422;26.092;2023-04-25T00:46:00;16.00;74.60
10447;DHT22;5271;44.422;26.092;2023-04-25T00:48:27;16.00;74.50
10447;DHT22;5271;44.422;26.092;2023-04-25T00:50:56;16.10;74.50
10447;DHT22;5271;44.422;26.092;2023-04-25T00:53:24;16.10;75.20
10447;DHT22;5271;44.422;26.092;2023-04-25T00:55:52;16.10;74.60
10447;DHT22;5271;44.422;26.092;2023-04-25T00:58:19;16.10;74.60
10447;DHT22;5271;44.422;26.092;2023-04-25T01:00:48;16.10;74.20
10447;DHT22;5271;44.422;26.092;2023-04-25T01:03:16;16.00;74.50
10447;DHT22;5271;44.422;26.092;2023-04-25T01:05:45;16.00;75.20
10447;DHT22;5271;44.422;26.092;2023-04-25T01:08:12;15.90;75.70
10447;DHT22;5271;44.422;26.092;2023-04-25T01:10:40;15.90;76.10
10447;DHT22;5271;44.422;26.092;2023-04-25T01:13:07;15.90;76.70
10447;DHT22;5271;44.422;26.092;2023-04-25T01:15:34;15.80;76.80
10447;DHT22;5271;44.422;26.092;2023-04-25T01:18:03;15.80;77.20
10447;DHT22;5271;44.422;26.092;2023-04-25T01:20:32;15.70;77.60
10447;DHT22;5271;44.422;26.092;2023-04-25T01:23:01;15.70;78.10
10447;DHT22;5271;44.422;26.092;2023-04-25T01:25:29;15.60;78.40
10447;DHT22;5271;44.422;26.092;2023-04-25T01:27:56;15.60;78.70
10447;DHT22;5271;44.422;26.092;2023-04-25T01:30:25;15.50;79.40
10447;DHT22;5271;44.422;26.092;2023-04-25T01:32:55;15.50;79.40
10447;DHT22;5271;44.422;26.092;2023-04-25T01:35:22;15.50;79.70
10447;DHT22;5271;44.422;26.092;2023-04-25T01:37:51;15.40;79.80
10447;DHT22;5271;44.422;26.092;2023-04-25T01:40:21;15.40;80.30
10447;DHT22;5271;44.422;26.092;2023-04-25T01:42:49;15.40;80.50
10447;DHT22;5271;44.422;26.092;2023-04-25T01:45:16;15.30;80.40
10447;DHT22;5271;44.422;26.092;2023-04-25T01:47:43;15.30;80.70
10447;DHT22;5271;44.422;26.092;2023-04-25T01:50:15;15.30;80.90
10447;DHT22;5271;44.422;26.092;2023-04-25T01:52:42;15.30;81.30
10447;DHT22;5271;44.422;26.092;2023-04-25T01:55:09;15.20;81.90
10447;DHT22;5271;44.422;26.092;2023-04-25T01:57:37;15.20;81.80
10447;DHT22;5271;44.422;26.092;2023-04-25T02:00:06;15.20;81.90
10447;DHT22;5271;44.422;26.092;2023-04-25T02:02:34;15.10;82.00
10447;DHT22;5271;44.422;26.092;2023-04-25T02:05:01;15.20;82.20
10447;DHT22;5271;44.422;26.092;2023-04-25T02:07:27;15.10;82.40
10447;DHT22;5271;44.422;26.092;2023-04-25T02:09:54;15.10;82.60
10447;DHT22;5271;44.422;26.092;2023-04-25T02:12:21;15.10;83.00
10447;DHT22;5271;44.422;26.092;2023-04-25T02:14:49;15.10;83.60
10447;DHT22;5271;44.422;26.092;2023-04-25T02:17:16;15.00;83.10
10447;DHT22;5271;44.422;26.092;2023-04-25T02:19:43;15.00;83.00
10447;DHT22;5271;44.422;26.092;2023-04-25T02:22:11;15.00;83.20
10447;DHT22;5271;44.422;26.092;2023-04-25T02:24:38;15.10;83.20
10447;DHT22;5271;44.422;26.092;2023-04-25T02:27:04;15.10;83.80
10447;DHT22;5271;44.422;26.092;2023-04-25T02:29:33;15.00;83.10
10447;DHT22;5271;44.422;26.092;2023-04-25T02:32:01;15.00;83.10
10447;DHT22;5271;44.422;26.092;2023-04-25T02:34:28;15.00;83.00
10447;DHT22;5271;44.422;26.092;2023-04-25T02:36:55;15.00;83.00
10447;DHT22;5271;44.422;26.092;2023-04-25T02:39:22;15.00;82.60
10447;DHT22;5271;44.422;26.092;2023-04-25T02:41:50;15.00;82.60
10447;DHT22;5271;44.422;26.092;2023-04-25T02:44:17;15.00;82.50
10447;DHT22;5271;44.422;26.092;2023-04-25T02:46:44;15.00;82.60
10447;DHT22;5271;44.422;26.092;2023-04-25T02:49:12;15.00;82.70
10447;DHT22;5271;44.422;26.092;2023-04-25T02:51:39;15.00;82.70
10447;DHT22;5271;44.422;26.092;2023-04-25T02:54:06;15.00;82.70
10447;DHT22;5271;44.422;26.092;2023-04-25T02:56:32;15.00;82.60
10447;DHT22;5271;44.422;26.092;2023-04-25T02:58:59;15.00;82.70
10447;DHT22;5271;44.422;26.092;2023-04-25T03:01:26;15.00;83.10
10447;DHT22;5271;44.422;26.092;2023-04-25T03:03:53;15.00;83.00
10447;DHT22;5271;44.422;26.092;2023-04-25T03:06:21;15.00;83.00
10447;DHT22;5271;44.422;26.092;2023-04-25T03:08:48;15.00;83.30
10447;DHT22;5271;44.422;26.092;2023-04-25T03:11:15;15.00;83.00
10447;DHT22;5271;44.422;26.092;2023-04-25T03:13:42;15.00;82.90
10447;DHT22;5271;44.422;26.092;2023-04-25T03:16:09;15.00;83.20
10447;DHT22;5271;44.422;26.092;2023-04-25T03:18:36;15.00;83.40
10447;DHT22;5271;44.422;26.092;2023-04-25T03:21:03;15.00;83.40
10447;DHT22;5271;44.422;26.092;2023-04-25T03:23:31;14.90;83.50
10447;DHT22;5271;44.422;26.092;2023-04-25T03:25:58;14.90;83.70
10447;DHT22;5271;44.422;26.092;2023-04-25T03:28:25;14.90;83.70
10447;DHT22;5271;44.422;26.092;2023-04-25T03:30:51;14.90;83.80
10447;DHT22;5271;44.422;26.092;2023-04-25T03:33:19;14.90;83.80
10447;DHT22;5271;44.422;26.092;2023-04-25T03:35:46;15.00;83.30
10447;DHT22;5271;44.422;26.092;2023-04-25T03:38:13;14.90;83.60
10447;DHT22;5271;44.422;26.092;2023-04-25T03:40:41;14.90;83.70
10447;DHT22;5271;44.422;26.092;2023-04-25T03:43:08;14.90;83.60
10447;DHT22;5271;44.422;26.092;2023-04-25T03:45:35;14.90;83.90
10447;DHT22;5271;44.422;26.092;2023-04-25T03:48:02;14.90;84.00
10447;DHT22;5271;44.422;26.092;2023-04-25T03:50:29;14.80;84.20
10447;DHT22;5271;44.422;26.092;2023-04-25T03:52:56;14.80;84.60
10447;DHT22;5271;44.422;26.092;2023-04-25T03:55:22;14.80;84.70
10447;DHT22;5271;44.422;26.092;2023-04-25T03:57:50;14.80;85.00
10447;DHT22;5271;44.422;26.092;2023-04-25T04:00:17;14.80;85.10
10447;DHT22;5271;44.422;26.092;2023-04-25T04:02:44;14.80;85.00
10447;DHT22;5271;44.422;26.092;2023-04-25T04:05:11;14.90;85.10
10447;DHT22;5271;44.422;26.092;2023-04-25T04:07:38;14.90;85.20
10447;DHT22;5271;44.422;26.092;2023-04-25T04:10:08;14.90;85.20
10447;DHT22;5271;44.422;26.092;2023-04-25T04:12:35;14.90;85.30
10447;DHT22;5271;44.422;26.092;2023-04-25T04:15:05;14.90;85.40
10447;DHT22;5271;44.422;26.092;2023-04-25T04:17:32;14.90;85.30
10447;DHT22;5271;44.422;26.092;2023-04-25T04:19:59;14.90;85.20
10447;DHT22;5271;44.422;26.092;2023-04-25T04:22:26;14.90;85.20
10447;DHT22;5271;44.422;26.092;2023-04-25T04:24:53;14.80;85.20
10447;DHT22;5271;44.422;26.092;2023-04-25T04:27:21;14.80;85.20
10447;DHT22;5271;44.422;26.092;2023-04-25T04:29:48;14.80;85.40
10447;DHT22;5271;44.422;26.092;2023-04-25T04:32:17;14.70;85.40
10447;DHT22;5271;44.422;26.092;2023-04-25T04:34:43;14.70;85.20
10447;DHT22;5271;44.422;26.092;2023-04-25T04:37:12;14.70;86.10
10447;DHT22;5271;44.422;26.092;2023-04-25T04:39:40;14.70;85.00
10447;DHT22;5271;44.422;26.092;2023-04-25T04:42:07;14.70;85.10
10447;DHT22;5271;44.422;26.092;2023-04-25T04:44:34;14.60;85.00
10447;DHT22;5271;44.422;26.092;2023-04-25T04:47:01;14.60;84.90
10447;DHT22;5271;44.422;26.092;2023-04-25T04:49:30;14.50;85.20
10447;DHT22;5271;44.422;26.092;2023-04-25T04:51:57;14.50;85.60
10447;DHT22;5271;44.422;26.092;2023-04-25T04:54:25;14.40;85.70
10447;DHT22;5271;44.422;26.092;2023-04-25T04:56:52;14.50;86.00
10447;DHT22;5271;44.422;26.092;2023-04-25T04:59:19;14.40;86.00
10447;DHT22;5271;44.422;26.092;2023-04-25T05:01:46;14.40;86.20
10447;DHT22;5271;44.422;26.092;2023-04-25T05:04:13;14.40;86.00
10447;DHT22;5271;44.422;26.092;2023-04-25T05:06:42;14.40;85.60
10447;DHT22;5271;44.422;26.092;2023-04-25T05:09:09;14.50;85.50
10447;DHT22;5271;44.422;26.092;2023-04-25T05:11:36;14.50;85.50
10447;DHT22;5271;44.422;26.092;2023-04-25T05:14:03;14.50;85.40
10447;DHT22;5271;44.422;26.092;2023-04-25T05:16:30;14.40;85.40
10447;DHT22;5271;44.422;26.092;2023-04-25T05:18:57;14.40;85.50
10447;DHT22;5271;44.422;26.092;2023-04-25T05:21:23;14.40;85.30
10447;DHT22;5271;44.422;26.092;2023-04-25T05:23:52;14.40;85.80
10447;DHT22;5271;44.422;26.092;2023-04-25T05:26:19;14.40;85.40
10447;DHT22;5271;44.422;26.092;2023-04-25T05:28:46;14.50;85.30
10447;DHT22;5271;44.422;26.092;2023-04-25T05:31:12;14.50;85.20
10447;DHT22;5271;44.422;26.092;2023-04-25T05:33:39;14.50;85.40
10447;DHT22;5271;44.422;26.092;2023-04-25T05:36:07;14.40;85.60
10447;DHT22;5271;44.422;26.092;2023-04-25T05:38:34;14.50;86.10
10447;DHT22;5271;44.422;26.092;2023-04-25T05:41:02;14.40;86.30
10447;DHT22;5271;44.422;26.092;2023-04-25T05:43:29;14.50;86.10
10447;DHT22;5271;44.422;26.092;2023-04-25T05:45:56;14.50;85.80
10447;DHT22;5271;44.422;26.092;2023-04-25T05:48:23;14.50;85.70
10447;DHT22;5271;44.422;26.092;2023-04-25T05:50:50;14.40;86.00
10447;DHT22;5271;44.422;26.092;2023-04-25T05:53:18;14.50;85.50
10447;DHT22;5271;44.422;26.092;2023-04-25T05:55:45;14.40;85.50
10447;DHT22;5271;44.422;26.092;2023-04-25T05:58:13;14.40;85.60
10447;DHT22;5271;44.422;26.092;2023-04-25T06:00:40;14.40;85.70
10447;DHT22;5271;44.422;26.092;2023-04-25T06:03:07;14.40;85.30
10447;DHT22;5271;44.422;26.092;2023-04-25T06:05:35;14.50;85.20
10447;DHT22;5271;44.422;26.092;2023-04-25T06:08:02;14.50;85.10
10447;DHT22;5271;44.422;26.092;2023-04-25T06:10:29;14.50;85.00
10447;DHT22;5271;44.422;26.092;2023-04-25T06:12:55;14.50;85.30
10447;DHT22;5271;44.422;26.092;2023-04-25T06:15:24;14.50;85.30
10447;DHT22;5271;44.422;26.092;2023-04-25T06:17:50;14.50;85.50
10447;DHT22;5271;44.422;26.092;2023-04-25T06:20:17;14.50;85.30
10447;DHT22;5271;44.422;26.092;2023-04-25T06:22:48;14.60;85.30
10447;DHT22;5271;44.422;26.092;2023-04-25T06:25:15;14.60;85.10
10447;DHT22;5271;44.422;26.092;2023-04-25T06:27:42;14.60;85.50
10447;DHT22;5271;44.422;26.092;2023-04-25T06:30:10;14.70;85.30
10447;DHT22;5271;44.422;26.092;2023-04-25T06:32:39;14.70;85.40
10447;DHT22;5271;44.422;26.092;2023-04-25T06:35:06;14.80;85.00
10447;DHT22;5271;44.422;26.092;2023-04-25T06:37:33;14.90;84.90
10447;DHT22;5271;44.422;26.092;2023-04-25T06:40:00;15.00;84.90
10447;DHT22;5271;44.422;26.092;2023-04-25T06:42:27;15.10;84.70
10447;DHT22;5271;44.422;26.092;2023-04-25T06:44:54;15.20;84.30
10447;DHT22;5271;44.422;26.092;2023-04-25T06:47:21;15.20;83.80
10447;DHT22;5271;44.422;26.092;2023-04-25T06:49:49;15.30;83.90
10447;DHT22;5271;44.422;26.092;2023-04-25T06:52:16;15.30;83.20
10447;DHT22;5271;44.422;26.092;2023-04-25T06:54:44;15.20;83.50
10447;DHT22;5271;44.422;26.092;2023-04-25T06:57:11;15.30;83.90
10447;DHT22;5271;44.422;26.092;2023-04-25T06:59:37;15.20;84.50
10447;DHT22;5271;44.422;26.092;2023-04-25T07:02:04;15.30;83.50
10447;DHT22;5271;44.422;26.092;2023-04-25T07:04:31;15.30;83.40
10447;DHT22;5271;44.422;26.092;2023-04-25T07:07:00;15.20;83.00
10447;DHT22;5271;44.422;26.092;2023-04-25T07:09:28;15.20;83.20
10447;DHT22;5271;44.422;26.092;2023-04-25T07:11:55;15.20;83.10
10447;DHT22;5271;44.422;26.092;2023-04-25T07:14:22;15.20;83.00
10447;DHT22;5271;44.422;26.092;2023-04-25T07:16:49;15.20;82.80
10447;DHT22;5271;44.422;26.092;2023-04-25T07:19:16;15.20;82.50
10447;DHT22;5271;44.422;26.092;2023-04-25T07:21:43;15.20;82.70
10447;DHT22;5271;44.422;26.092;2023-04-25T07:24:11;15.30;82.50
10447;DHT22;5271;44.422;26.092;2023-04-25T07:26:38;15.30;82.30
10447;DHT22;5271;44.422;26.092;2023-04-25T07:29:05;15.30;81.90
10447;DHT22;5271;44.422;26.092;2023-04-25T07:31:32;15.40;81.90
10447;DHT22;5271;44.422;26.092;2023-04-25T07:33:58;15.50;81.00
10447;DHT22;5271;44.422;26.092;2023-04-25T07:36:25;15.70;79.50
10447;DHT22;5271;44.422;26.092;2023-04-25T07:38:52;16.00;78.90
10447;DHT22;5271;44.422;26.092;2023-04-25T07:41:20;16.50;78.00
10447;DHT22;5271;44.422;26.092;2023-04-25T07:43:47;17.10;76.50
10447;DHT22;5271;44.422;26.092;2023-04-25T07:46:14;18.00;76.40
10447;DHT22;5271;44.422;26.092;2023-04-25T07:48:41;19.20;74.20
10447;DHT22;5271;44.422;26.092;2023-04-25T07:51:08;20.10;72.30
10447;DHT22;5271;44.422;26.092;2023-04-25T07:53:35;21.10;67.80
10447;DHT22;5271;44.422;26.092;2023-04-25T07:56:03;22.00;65.40
10447;DHT22;5271;44.422;26.092;2023-04-25T07:58:31;21.90;63.20
10447;DHT22;5271;44.422;26.092;2023-04-25T08:00:58;21.70;62.50
10447;DHT22;5271;44.422;26.092;2023-04-25T08:03:25;21.00;63.60
10447;DHT22;5271;44.422;26.092;2023-04-25T08:05:52;20.20;64.70
10447;DHT22;5271;44.422;26.092;2023-04-25T08:08:19;19.70;65.00
10447;DHT22;5271;44.422;26.092;2023-04-25T08:10:45;19.30;65.40
10447;DHT22;5271;44.422;26.092;2023-04-25T08:13:13;18.90;66.70
10447;DHT22;5271;44.422;26.092;2023-04-25T08:15:41;18.70;67.40
10447;DHT22;5271;44.422;26.092;2023-04-25T08:18:08;18.40;66.40
10447;DHT22;5271;44.422;26.092;2023-04-25T08:20:35;18.20;66.20
10447;DHT22;5271;44.422;26.092;2023-04-25T08:23:02;18.10;66.40
10447;DHT22;5271;44.422;26.092;2023-04-25T08:25:29;17.90;67.20
10447;DHT22;5271;44.422;26.092;2023-04-25T08:27:56;17.90;67.30
10447;DHT22;5271;44.422;26.092;2023-04-25T08:30:25;17.90;68.20
10447;DHT22;5271;44.422;26.092;2023-04-25T08:32:53;17.90;67.60
10447;DHT22;5271;44.422;26.092;2023-04-25T08:35:20;18.00;66.80
10447;DHT22;5271;44.422;26.092;2023-04-25T08:37:47;18.10;65.60
10447;DHT22;5271;44.422;26.092;2023-04-25T08:40:15;18.10;65.40
10447;DHT22;5271;44.422;26.092;2023-04-25T08:42:42;18.10;65.10
10447;DHT22;5271;44.422;26.092;2023-04-25T08:45:10;18.10;65.20
10447;DHT22;5271;44.422;26.092;2023-04-25T08:47:38;18.20;66.20
10447;DHT22;5271;44.422;26.092;2023-04-25T08:50:07;18.20;65.20
10447;DHT22;5271;44.422;26.092;2023-04-25T08:52:36;18.20;63.90
10447;DHT22;5271;44.422;26.092;2023-04-25T08:55:05;18.10;64.10
10447;DHT22;5271;44.422;26.092;2023-04-25T08:57:34;18.10;65.00
10447;DHT22;5271;44.422;26.092;2023-04-25T09:00:02;18.00;65.10
10447;DHT22;5271;44.422;26.092;2023-04-25T09:02:29;18.00;65.20
10447;DHT22;5271;44.422;26.092;2023-04-25T09:04:57;17.90;65.60
10447;DHT22;5271;44.422;26.092;2023-04-25T09:07:25;17.80;66.00
10447;DHT22;5271;44.422;26.092;2023-04-25T09:09:52;17.90;66.50
10447;DHT22;5271;44.422;26.092;2023-04-25T09:12:19;18.00;65.70
10447;DHT22;5271;44.422;26.092;2023-04-25T09:15:02;18.00;64.90
10447;DHT22;5271;44.422;26.092;2023-04-25T09:17:30;17.90;66.00
10447;DHT22;5271;44.422;26.092;2023-04-25T09:20:06;17.90;65.60
10447;DHT22;5271;44.422;26.092;2023-04-25T09:22:35;17.90;66.00
10447;DHT22;5271;44.422;26.092;2023-04-25T09:25:03;18.00;65.70
10447;DHT22;5271;44.422;26.092;2023-04-25T09:27:32;18.00;65.20
10447;DHT22;5271;44.422;26.092;2023-04-25T09:30:00;18.00;64.80
10447;DHT22;5271;44.422;26.092;2023-04-25T09:32:27;18.00;65.40
10447;DHT22;5271;44.422;26.092;2023-04-25T09:34:55;18.10;65.50
10447;DHT22;5271;44.422;26.092;2023-04-25T09:37:24;18.20;65.10
10447;DHT22;5271;44.422;26.092;2023-04-25T09:39:53;18.30;63.40
10447;DHT22;5271;44.422;26.092;2023-04-25T09:42:22;18.30;63.90
10447;DHT22;5271;44.422;26.092;2023-04-25T09:44:51;18.50;64.10
10447;DHT22;5271;44.422;26.092;2023-04-25T09:47:19;18.60;63.40
10447;DHT22;5271;44.422;26.092;2023-04-25T09:49:47;18.60;63.20
10447;DHT22;5271;44.422;26.092;2023-04-25T09:52:16;18.50;64.00
10447;DHT22;5271;44.422;26.092;2023-04-25T09:54:44;18.50;64.70
10447;DHT22;5271;44.422;26.092;2023-04-25T09:57:13;18.40;64.40
10447;DHT22;5271;44.422;26.092;2023-04-25T09:59:44;18.40;64.50
10447;DHT22;5271;44.422;26.092;2023-04-25T10:02:12;18.40;64.40
10447;DHT22;5271;44.422;26.092;2023-04-25T10:04:39;18.30;64.70
10447;DHT22;5271;44.422;26.092;2023-04-25T10:07:08;18.30;65.30
10447;DHT22;5271;44.422;26.092;2023-04-25T10:09:37;18.30;65.40
10447;DHT22;5271;44.422;26.092;2023-04-25T10:12:05;18.40;65.60
10447;DHT22;5271;44.422;26.092;2023-04-25T10:14:34;18.50;64.90
10447;DHT22;5271;44.422;26.092;2023-04-25T10:17:02;18.40;65.20
10447;DHT22;5271;44.422;26.092;2023-04-25T10:19:29;18.30;65.40
10447;DHT22;5271;44.422;26.092;2023-04-25T10:22:04;18.30;65.90
10447;DHT22;5271;44.422;26.092;2023-04-25T10:24:32;18.20;66.00
10447;DHT22;5271;44.422;26.092;2023-04-25T10:27:00;18.20;66.20
10447;DHT22;5271;44.422;26.092;2023-04-25T10:29:27;18.20;66.20
10447;DHT22;5271;44.422;26.092;2023-04-25T10:31:57;18.30;66.20
10447;DHT22;5271;44.422;26.092;2023-04-25T10:34:25;18.40;66.10
10447;DHT22;5271;44.422;26.092;2023-04-25T10:37:03;18.50;66.20
10447;DHT22;5271;44.422;26.092;2023-04-25T10:39:30;18.50;66.40
10447;DHT22;5271;44.422;26.092;2023-04-25T10:41:59;18.50;66.20
10447;DHT22;5271;44.422;26.092;2023-04-25T10:44:28;18.60;66.20
10447;DHT22;5271;44.422;26.092;2023-04-25T10:46:57;18.70;66.30
10447;DHT22;5271;44.422;26.092;2023-04-25T10:49:32;18.80;65.70
10447;DHT22;5271;44.422;26.092;2023-04-25T10:52:17;18.90;64.50
10447;DHT22;5271;44.422;26.092;2023-04-25T10:54:48;18.90;64.10
10447;DHT22;5271;44.422;26.092;2023-04-25T10:57:28;18.90;64.10
10447;DHT22;5271;44.422;26.092;2023-04-25T10:59:58;19.00;63.60
10447;DHT22;5271;44.422;26.092;2023-04-25T11:02:28;19.10;63.30
10447;DHT22;5271;44.422;26.092;2023-04-25T11:04:56;19.10;63.20
10447;DHT22;5271;44.422;26.092;2023-04-25T11:07:29;19.10;63.20
10447;DHT22;5271;44.422;26.092;2023-04-25T11:10:01;19.20;63.00
10447;DHT22;5271;44.422;26.092;2023-04-25T11:12:30;19.20;61.50
10447;DHT22;5271;44.422;26.092;2023-04-25T11:15:02;19.20;61.20
10447;DHT22;5271;44.422;26.092;2023-04-25T11:17:30;19.30;62.00
10447;DHT22;5271;44.422;26.092;2023-04-25T11:19:57;19.40;61.90
10447;DHT22;5271;44.422;26.092;2023-04-25T11:22:24;19.50;61.70
10447;DHT22;5271;44.422;26.092;2023-04-25T11:24:53;19.50;61.20
10447;DHT22;5271;44.422;26.092;2023-04-25T11:27:20;19.60;60.90
10447;DHT22;5271;44.422;26.092;2023-04-25T11:29:47;19.70;61.00
10447;DHT22;5271;44.422;26.092;2023-04-25T11:32:15;19.70;61.10
10447;DHT22;5271;44.422;26.092;2023-04-25T11:34:44;19.80;60.30
10447;DHT22;5271;44.422;26.092;2023-04-25T11:37:11;19.80;60.40
10447;DHT22;5271;44.422;26.092;2023-04-25T11:39:43;19.90;60.10
10447;DHT22;5271;44.422;26.092;2023-04-25T11:42:11;19.90;60.10
10447;DHT22;5271;44.422;26.092;2023-04-25T11:44:38;19.90;60.30
10447;DHT22;5271;44.422;26.092;2023-04-25T11:47:06;19.90;59.90
10447;DHT22;5271;44.422;26.092;2023-04-25T11:49:33;19.80;60.00
10447;DHT22;5271;44.422;26.092;2023-04-25T11:52:02;19.70;60.30
10447;DHT22;5271;44.422;26.092;2023-04-25T11:54:29;19.60;60.30
10447;DHT22;5271;44.422;26.092;2023-04-25T11:56:56;19.50;60.40
10447;DHT22;5271;44.422;26.092;2023-04-25T11:59:24;19.50;60.00
10447;DHT22;5271;44.422;26.092;2023-04-25T12:01:52;19.50;60.00
10447;DHT22;5271;44.422;26.092;2023-04-25T12:04:20;19.50;59.90
10447;DHT22;5271;44.422;26.092;2023-04-25T12:06:51;19.50;59.40
10447;DHT22;5271;44.422;26.092;2023-04-25T12:09:20;19.50;59.40
10447;DHT22;5271;44.422;26.092;2023-04-25T12:11:48;19.50;59.20
10447;DHT22;5271;44.422;26.092;2023-04-25T12:14:22;19.40;59.00
10447;DHT22;5271;44.422;26.092;2023-04-25T12:16:50;19.40;59.00
10447;DHT22;5271;44.422;26.092;2023-04-25T12:19:19;19.40;58.70
10447;DHT22;5271;44.422;26.092;2023-04-25T12:21:46;19.30;58.80
10447;DHT22;5271;44.422;26.092;2023-04-25T12:24:15;19.30;58.90
10447;DHT22;5271;44.422;26.092;2023-04-25T12:26:51;19.20;58.20
10447;DHT22;5271;44.422;26.092;2023-04-25T12:29:19;19.30;57.50
10447;DHT22;5271;44.422;26.092;2023-04-25T12:31:47;19.30;58.10
10447;DHT22;5271;44.422;26.092;2023-04-25T12:34:14;19.40;57.60
10447;DHT22;5271;44.422;26.092;2023-04-25T12:36:41;19.30;57.40
10447;DHT22;5271;44.422;26.092;2023-04-25T12:39:08;19.40;57.20
10447;DHT22;5271;44.422;26.092;2023-04-25T12:41:35;19.30;56.90
10447;DHT22;5271;44.422;26.092;2023-04-25T12:44:04;19.40;57.20
10447;DHT22;5271;44.422;26.092;2023-04-25T12:46:31;19.40;57.60
10447;DHT22;5271;44.422;26.092;2023-04-25T12:48:58;19.40;57.30
10447;DHT22;5271;44.422;26.092;2023-04-25T12:51:25;19.50;57.70
10447;DHT22;5271;44.422;26.092;2023-04-25T12:53:53;19.50;57.40
10447;DHT22;5271;44.422;26.092;2023-04-25T12:56:20;19.60;57.50
10447;DHT22;5271;44.422;26.092;2023-04-25T12:58:47;19.70;57.00
10447;DHT22;5271;44.422;26.092;2023-04-25T13:01:15;19.60;56.90
10447;DHT22;5271;44.422;26.092;2023-04-25T13:03:42;19.70;56.40
10447;DHT22;5271;44.422;26.092;2023-04-25T13:06:09;19.60;56.30
10447;DHT22;5271;44.422;26.092;2023-04-25T13:08:38;19.60;56.20
10447;DHT22;5271;44.422;26.092;2023-04-25T13:11:06;19.50;56.00
10447;DHT22;5271;44.422;26.092;2023-04-25T13:13:32;19.50;56.60
10447;DHT22;5271;44.422;26.092;2023-04-25T13:16:00;19.50;56.20
10447;DHT22;5271;44.422;26.092;2023-04-25T13:18:29;19.50;55.80
10447;DHT22;5271;44.422;26.092;2023-04-25T13:20:56;19.40;55.70
10447;DHT22;5271;44.422;26.092;2023-04-25T13:23:24;19.40;56.10
10447;DHT22;5271;44.422;26.092;2023-04-25T13:25:51;19.40;55.50
10447;DHT22;5271;44.422;26.092;2023-04-25T13:28:18;19.40;56.60
10447;DHT22;5271;44.422;26.092;2023-04-25T13:30:46;19.40;55.90
10447;DHT22;5271;44.422;26.092;2023-04-25T13:33:13;19.50;55.80
10447;DHT22;5271;44.422;26.092;2023-04-25T13:35:42;19.50;55.70
10447;DHT22;5271;44.422;26.092;2023-04-25T13:38:12;19.50;55.60
10447;DHT22;5271;44.422;26.092;2023-04-25T13:40:39;19.50;55.30
10447;DHT22;5271;44.422;26.092;2023-04-25T13:43:06;19.40;54.70
10447;DHT22;5271;44.422;26.092;2023-04-25T13:45:33;19.40;55.20
10447;DHT22;5271;44.422;26.092;2023-04-25T13:48:00;19.40;55.10
10447;DHT22;5271;44.422;26.092;2023-04-25T13:50:27;19.40;54.80
10447;DHT22;5271;44.422;26.092;2023-04-25T13:52:55;19.50;55.10
10447;DHT22;5271;44.422;26.092;2023-04-25T13:55:22;19.50;54.90
10447;DHT22;5271;44.422;26.092;2023-04-25T13:57:49;19.60;54.00
10447;DHT22;5271;44.422;26.092;2023-04-25T14:00:17;19.60;54.10
10447;DHT22;5271;44.422;26.092;2023-04-25T14:02:44;19.60;54.40
10447;DHT22;5271;44.422;26.092;2023-04-25T14:05:11;19.50;54.90
10447;DHT22;5271;44.422;26.092;2023-04-25T14:07:38;19.50;55.30
10447;DHT22;5271;44.422;26.092;2023-04-25T16:38:21;19.30;55.60
10447;DHT22;5271;44.422;26.092;2023-04-25T16:40:47;19.30;55.60
10447;DHT22;5271;44.422;26.092;2023-04-25T16:43:14;19.30;55.50
10447;DHT22;5271;44.422;26.092;2023-04-25T16:45:44;19.20;55.60
10447;DHT22;5271;44.422;26.092;2023-04-25T16:48:11;19.30;55.60
10447;DHT22;5271;44.422;26.092;2023-04-25T16:50:38;19.20;55.50
10447;DHT22;5271;44.422;26.092;2023-04-25T16:53:04;19.20;55.80
10447;DHT22;5271;44.422;26.092;2023-04-25T16:55:32;19.10;55.90
10447;DHT22;5271;44.422;26.092;2023-04-25T17:00:35;19.10;56.00
10447;DHT22;5271;44.422;26.092;2023-04-25T17:03:02;19.00;56.20
10447;DHT22;5271;44.422;26.092;2023-04-25T17:05:28;19.00;56.50
10447;DHT22;5271;44.422;26.092;2023-04-25T17:07:55;19.00;56.60
10447;DHT22;5271;44.422;26.092;2023-04-25T17:10:22;19.00;56.50
10447;DHT22;5271;44.422;26.092;2023-04-25T17:12:50;18.90;56.50
10447;DHT22;5271;44.422;26.092;2023-04-25T17:15:18;18.90;56.40
10447;DHT22;5271;44.422;26.092;2023-04-25T17:17:45;18.90;56.50
10447;DHT22;5271;44.422;26.092;2023-04-25T17:20:12;18.80;56.70
10447;DHT22;5271;44.422;26.092;2023-04-25T17:22:39;18.80;57.00
10447;DHT22;5271;44.422;26.092;2023-04-25T17:25:07;18.80;56.80
10447;DHT22;5271;44.422;26.092;2023-04-25T17:27:34;18.80;56.70
10447;DHT22;5271;44.422;26.092;2023-04-25T17:30:03;18.70;56.90
10447;DHT22;5271;44.422;26.092;2023-04-25T17:32:31;18.60;56.90
10447;DHT22;5271;44.422;26.092;2023-04-25T17:34:58;18.50;57.10
10447;DHT22;5271;44.422;26.092;2023-04-25T17:37:25;18.50;57.20
10447;DHT22;5271;44.422;26.092;2023-04-25T17:39:53;18.50;57.30
10447;DHT22;5271;44.422;26.092;2023-04-25T17:42:19;18.40;57.50
10447;DHT22;5271;44.422;26.092;2023-04-25T17:44:46;18.40;57.70
10447;DHT22;5271;44.422;26.092;2023-04-25T17:47:15;18.30;57.80
10447;DHT22;5271;44.422;26.092;2023-04-25T17:49:41;18.30;58.00
10447;DHT22;5271;44.422;26.092;2023-04-25T17:52:08;18.20;57.70
10447;DHT22;5271;44.422;26.092;2023-04-25T17:54:36;18.20;57.90
10447;DHT22;5271;44.422;26.092;2023-04-25T17:57:03;18.20;58.00
10447;DHT22;5271;44.422;26.092;2023-04-25T17:59:30;18.10;57.90
10447;DHT22;5271;44.422;26.092;2023-04-25T18:01:56;18.10;57.80
10447;DHT22;5271;44.422;26.092;2023-04-25T18:04:26;18.10;58.00